sensor_id;sensor_type;location;lat;lon;timestamp;pressure;altitude;pressure_sealevel;temperature;humidity
60345;BME280;46188;52.324;8.032;2023-04-08T00:00:33;101119.31;;;4.25;89.45
60345;BME280;46188;52.324;8.032;2023-04-08T00:02:58;101113.88;;;4.21;90.22
60345;BME280;46188;52.324;8.032;2023-04-08T00:05:23;101123.19;;;4.16;90.47
60345;BME280;46188;52.324;8.032;2023-04-08T00:07:48;101126.25;;;4.07;90.82
60345;BME280;46188;52.324;8.032;2023-04-08T00:10:14;101125.22;;;4.03;91.88
60345;BME280;46188;52.324;8.032;2023-04-08T00:12:39;101124.25;;;4.01;91.89
60345;BME280;46188;52.324;8.032;2023-04-08T00:15:05;101121.56;;;4.00;92.07
60345;BME280;46188;52.324;8.032;2023-04-08T00:17:30;101127.59;;;3.99;92.46
60345;BME280;46188;52.324;8.032;2023-04-08T00:19:55;101123.94;;;3.95;93.01
60345;BME280;46188;52.324;8.032;2023-04-08T00:22:21;101119.03;;;3.83;94.36
60345;BME280;46188;52.324;8.032;2023-04-08T00:24:46;101119.72;;;3.79;94.37
60345;BME280;46188;52.324;8.032;2023-04-08T00:27:11;101117.75;;;3.75;95.25
60345;BME280;46188;52.324;8.032;2023-04-08T00:29:36;101119.25;;;3.70;95.90
60345;BME280;46188;52.324;8.032;2023-04-08T00:32:02;101116.56;;;3.68;96.73
60345;BME280;46188;52.324;8.032;2023-04-08T00:34:28;101115.91;;;3.73;96.60
60345;BME280;46188;52.324;8.032;2023-04-08T00:36:53;101117.41;;;3.67;96.60
60345;BME280;46188;52.324;8.032;2023-04-08T00:39:18;101121.63;;;3.65;97.70
60345;BME280;46188;52.324;8.032;2023-04-08T00:41:43;101114.72;;;3.66;98.15
60345;BME280;46188;52.324;8.032;2023-04-08T00:44:09;101116.81;;;3.73;97.61
60345;BME280;46188;52.324;8.032;2023-04-08T00:46:36;101121.34;;;3.77;97.89
60345;BME280;46188;52.324;8.032;2023-04-08T00:49:02;101117.69;;;3.74;98.68
60345;BME280;46188;52.324;8.032;2023-04-08T00:51:28;101120.06;;;3.69;99.34
60345;BME280;46188;52.324;8.032;2023-04-08T00:53:55;101117.47;;;3.69;99.49
60345;BME280;46188;52.324;8.032;2023-04-08T00:56:21;101117.25;;;3.64;100.00
60345;BME280;46188;52.324;8.032;2023-04-08T00:58:47;101118.88;;;3.62;100.00
60345;BME280;46188;52.324;8.032;2023-04-08T01:01:19;101124.16;;;3.64;100.00
60345;BME280;46188;52.324;8.032;2023-04-08T01:03:50;101127.00;;;3.68;100.00
60345;BME280;46188;52.324;8.032;2023-04-08T01:09:17;101129.38;;;3.82;100.00
60345;BME280;46188;52.324;8.032;2023-04-08T01:11:45;101129.69;;;3.88;100.00
60345;BME280;46188;52.324;8.032;2023-04-08T01:14:16;101130.72;;;3.92;100.00
60345;BME280;46188;52.324;8.032;2023-04-08T01:16:44;101132.59;;;3.94;100.00
60345;BME280;46188;52.324;8.032;2023-04-08T01:19:19;101134.59;;;4.00;100.00
60345;BME280;46188;52.324;8.032;2023-04-08T01:21:47;101129.38;;;4.00;100.00
60345;BME280;46188;52.324;8.032;2023-04-08T01:24:28;101136.63;;;4.05;100.00
60345;BME280;46188;52.324;8.032;2023-04-08T01:26:55;101124.63;;;4.09;100.00
60345;BME280;46188;52.324;8.032;2023-04-08T01:29:23;101124.81;;;4.14;100.00
60345;BME280;46188;52.324;8.032;2023-04-08T01:31:51;101131.09;;;4.17;100.00
60345;BME280;46188;52.324;8.032;2023-04-08T01:34:19;101133.78;;;4.19;100.00
60345;BME280;46188;52.324;8.032;2023-04-08T01:36:45;101128.69;;;4.22;100.00
60345;BME280;46188;52.324;8.032;2023-04-08T01:39:12;101132.34;;;4.25;100.00
60345;BME280;46188;52.324;8.032;2023-04-08T01:41:39;101140.38;;;4.30;100.00
60345;BME280;46188;52.324;8.032;2023-04-08T01:44:05;101138.69;;;4.31;100.00
60345;BME280;46188;52.324;8.032;2023-04-08T01:46:31;101136.34;;;4.37;100.00
60345;BME280;46188;52.324;8.032;2023-04-08T01:48:58;101139.09;;;4.40;100.00
60345;BME280;46188;52.324;8.032;2023-04-08T01:51:24;101135.75;;;4.42;100.00
60345;BME280;46188;52.324;8.032;2023-04-08T01:53:51;101141.94;;;4.44;100.00
60345;BME280;46188;52.324;8.032;2023-04-08T01:56:17;101143.03;;;4.50;100.00
60345;BME280;46188;52.324;8.032;2023-04-08T01:58:49;101139.75;;;4.54;100.00
60345;BME280;46188;52.324;8.032;2023-04-08T02:01:19;101139.00;;;4.56;100.00
60345;BME280;46188;52.324;8.032;2023-04-08T02:03:46;101140.94;;;4.60;100.00
60345;BME280;46188;52.324;8.032;2023-04-08T02:06:11;101139.34;;;4.64;100.00
60345;BME280;46188;52.324;8.032;2023-04-08T02:08:37;101143.00;;;4.68;100.00
60345;BME280;46188;52.324;8.032;2023-04-08T02:11:02;101137.91;;;4.71;100.00
60345;BME280;46188;52.324;8.032;2023-04-08T02:13:28;101142.44;;;4.75;100.00
60345;BME280;46188;52.324;8.032;2023-04-08T02:16:01;101141.69;;;4.77;100.00
60345;BME280;46188;52.324;8.032;2023-04-08T02:18:28;101143.56;;;4.80;100.00
60345;BME280;46188;52.324;8.032;2023-04-08T02:21:01;101145.34;;;4.81;100.00
60345;BME280;46188;52.324;8.032;2023-04-08T02:23:28;101151.59;;;4.85;100.00
60345;BME280;46188;52.324;8.032;2023-04-08T02:25:56;101148.16;;;4.86;100.00
60345;BME280;46188;52.324;8.032;2023-04-08T02:28:22;101148.44;;;4.92;100.00
60345;BME280;46188;52.324;8.032;2023-04-08T02:30:50;101153.81;;;4.95;100.00
60345;BME280;46188;52.324;8.032;2023-04-08T02:33:21;101160.06;;;4.98;100.00
60345;BME280;46188;52.324;8.032;2023-04-08T02:35:48;101155.84;;;5.02;100.00
60345;BME280;46188;52.324;8.032;2023-04-08T02:38:14;101149.75;;;5.02;100.00
60345;BME280;46188;52.324;8.032;2023-04-08T02:40:40;101157.69;;;5.05;100.00
60345;BME280;46188;52.324;8.032;2023-04-08T02:43:05;101163.13;;;5.09;100.00
60345;BME280;46188;52.324;8.032;2023-04-08T02:45:43;101164.16;;;5.13;100.00
60345;BME280;46188;52.324;8.032;2023-04-08T02:48:08;101157.22;;;5.13;100.00
60345;BME280;46188;52.324;8.032;2023-04-08T02:50:34;101151.22;;;5.16;100.00
60345;BME280;46188;52.324;8.032;2023-04-08T02:52:59;101154.81;;;5.18;100.00
60345;BME280;46188;52.324;8.032;2023-04-08T02:55:25;101153.91;;;5.17;100.00
60345;BME280;46188;52.324;8.032;2023-04-08T02:57:50;101158.19;;;5.15;100.00
60345;BME280;46188;52.324;8.032;2023-04-08T03:00:15;101161.75;;;5.17;100.00
60345;BME280;46188;52.324;8.032;2023-04-08T03:02:41;101155.84;;;5.22;100.00
60345;BME280;46188;52.324;8.032;2023-04-08T03:05:06;101156.94;;;5.27;100.00
60345;BME280;46188;52.324;8.032;2023-04-08T03:07:32;101164.84;;;5.28;100.00
60345;BME280;46188;52.324;8.032;2023-04-08T03:09:57;101167.53;;;5.30;100.00
60345;BME280;46188;52.324;8.032;2023-04-08T03:12:23;101165.75;;;5.29;100.00
60345;BME280;46188;52.324;8.032;2023-04-08T03:14:49;101163.13;;;5.29;100.00
60345;BME280;46188;52.324;8.032;2023-04-08T03:17:14;101161.47;;;5.31;100.00
60345;BME280;46188;52.324;8.032;2023-04-08T03:19:40;101162.31;;;5.30;100.00
60345;BME280;46188;52.324;8.032;2023-04-08T03:22:05;101161.66;;;5.35;100.00
60345;BME280;46188;52.324;8.032;2023-04-08T03:24:30;101164.34;;;5.37;100.00
60345;BME280;46188;52.324;8.032;2023-04-08T03:26:56;101160.84;;;5.36;100.00
60345;BME280;46188;52.324;8.032;2023-04-08T03:29:21;101164.47;;;5.40;100.00
60345;BME280;46188;52.324;8.032;2023-04-08T03:31:46;101165.44;;;5.42;100.00
60345;BME280;46188;52.324;8.032;2023-04-08T03:34:11;101157.66;;;5.44;100.00
60345;BME280;46188;52.324;8.032;2023-04-08T03:36:37;101159.47;;;5.45;100.00
60345;BME280;46188;52.324;8.032;2023-04-08T03:39:02;101164.69;;;5.45;100.00
60345;BME280;46188;52.324;8.032;2023-04-08T03:41:28;101162.13;;;5.46;100.00
60345;BME280;46188;52.324;8.032;2023-04-08T03:43:53;101158.75;;;5.49;100.00
60345;BME280;46188;52.324;8.032;2023-04-08T03:46:18;101157.88;;;5.48;100.00
60345;BME280;46188;52.324;8.032;2023-04-08T03:48:43;101153.44;;;5.47;100.00
60345;BME280;46188;52.324;8.032;2023-04-08T03:51:09;101162.13;;;5.46;100.00
60345;BME280;46188;52.324;8.032;2023-04-08T03:53:34;101161.28;;;5.47;100.00
60345;BME280;46188;52.324;8.032;2023-04-08T03:55:59;101159.63;;;5.49;100.00
60345;BME280;46188;52.324;8.032;2023-04-08T03:58:26;101152.78;;;5.51;100.00
60345;BME280;46188;52.324;8.032;2023-04-08T04:00:52;101156.19;;;5.50;100.00
60345;BME280;46188;52.324;8.032;2023-04-08T04:03:17;101151.91;;;5.52;100.00
60345;BME280;46188;52.324;8.032;2023-04-08T04:05:43;101148.56;;;5.55;100.00
60345;BME280;46188;52.324;8.032;2023-04-08T04:08:08;101147.59;;;5.53;100.00
60345;BME280;46188;52.324;8.032;2023-04-08T04:10:33;101158.00;;;5.51;100.00
60345;BME280;46188;52.324;8.032;2023-04-08T04:12:59;101165.78;;;5.50;100.00
60345;BME280;46188;52.324;8.032;2023-04-08T04:15:25;101165.84;;;5.51;100.00
60345;BME280;46188;52.324;8.032;2023-04-08T04:17:50;101159.75;;;5.52;100.00
60345;BME280;46188;52.324;8.032;2023-04-08T04:20:16;101171.28;;;5.56;100.00
60345;BME280;46188;52.324;8.032;2023-04-08T04:22:41;101168.66;;;5.56;100.00
60345;BME280;46188;52.324;8.032;2023-04-08T04:25:07;101174.78;;;5.57;100.00
60345;BME280;46188;52.324;8.032;2023-04-08T04:27:32;101173.03;;;5.57;100.00
60345;BME280;46188;52.324;8.032;2023-04-08T04:29:59;101178.34;;;5.59;100.00
60345;BME280;46188;52.324;8.032;2023-04-08T04:32:25;101179.94;;;5.55;100.00
60345;BME280;46188;52.324;8.032;2023-04-08T04:34:50;101187.84;;;5.57;100.00
60345;BME280;46188;52.324;8.032;2023-04-08T04:37:15;101178.00;;;5.51;100.00
60345;BME280;46188;52.324;8.032;2023-04-08T04:39:41;101186.75;;;5.51;100.00
60345;BME280;46188;52.324;8.032;2023-04-08T04:42:06;101184.81;;;5.47;100.00
60345;BME280;46188;52.324;8.032;2023-04-08T04:44:31;101197.03;;;5.47;100.00
60345;BME280;46188;52.324;8.032;2023-04-08T04:46:57;101191.84;;;5.48;100.00
60345;BME280;46188;52.324;8.032;2023-04-08T04:49:22;101193.75;;;5.52;100.00
60345;BME280;46188;52.324;8.032;2023-04-08T04:51:47;101199.06;;;5.54;100.00
60345;BME280;46188;52.324;8.032;2023-04-08T04:54:13;101201.75;;;5.55;100.00
60345;BME280;46188;52.324;8.032;2023-04-08T04:56:38;101200.94;;;5.57;100.00
60345;BME280;46188;52.324;8.032;2023-04-08T04:59:03;101200.72;;;5.52;100.00
60345;BME280;46188;52.324;8.032;2023-04-08T05:01:29;101207.88;;;5.56;100.00
60345;BME280;46188;52.324;8.032;2023-04-08T05:03:54;101204.34;;;5.55;100.00
60345;BME280;46188;52.324;8.032;2023-04-08T05:06:22;101207.75;;;5.53;100.00
60345;BME280;46188;52.324;8.032;2023-04-08T05:08:47;101212.06;;;5.52;100.00
60345;BME280;46188;52.324;8.032;2023-04-08T05:11:12;101214.81;;;5.55;100.00
60345;BME280;46188;52.324;8.032;2023-04-08T05:13:38;101219.09;;;5.53;100.00
60345;BME280;46188;52.324;8.032;2023-04-08T05:16:03;101207.75;;;5.53;100.00
60345;BME280;46188;52.324;8.032;2023-04-08T05:18:28;101215.66;;;5.54;100.00
60345;BME280;46188;52.324;8.032;2023-04-08T05:20:53;101214.53;;;5.49;100.00
60345;BME280;46188;52.324;8.032;2023-04-08T05:23:19;101221.50;;;5.49;100.00
60345;BME280;46188;52.324;8.032;2023-04-08T05:25:44;101217.66;;;5.41;100.00
60345;BME280;46188;52.324;8.032;2023-04-08T05:28:10;101219.41;;;5.40;100.00
60345;BME280;46188;52.324;8.032;2023-04-08T05:30:35;101225.56;;;5.42;100.00
60345;BME280;46188;52.324;8.032;2023-04-08T05:33:00;101231.59;;;5.40;100.00
60345;BME280;46188;52.324;8.032;2023-04-08T05:35:26;101227.09;;;5.37;100.00
60345;BME280;46188;52.324;8.032;2023-04-08T05:37:51;101227.91;;;5.36;100.00
60345;BME280;46188;52.324;8.032;2023-04-08T05:40:17;101235.91;;;5.39;100.00
60345;BME280;46188;52.324;8.032;2023-04-08T05:42:42;101224.63;;;5.40;100.00
60345;BME280;46188;52.324;8.032;2023-04-08T05:45:08;101228.25;;;5.44;100.00
60345;BME280;46188;52.324;8.032;2023-04-08T05:47:33;101235.22;;;5.43;100.00
60345;BME280;46188;52.324;8.032;2023-04-08T05:49:58;101231.00;;;5.47;100.00
60345;BME280;46188;52.324;8.032;2023-04-08T05:52:24;101237.34;;;5.52;100.00
60345;BME280;46188;52.324;8.032;2023-04-08T05:54:49;101242.63;;;5.53;100.00
60345;BME280;46188;52.324;8.032;2023-04-08T05:57:15;101247.06;;;5.54;100.00
60345;BME280;46188;52.324;8.032;2023-04-08T05:59:40;101254.06;;;5.55;100.00
60345;BME280;46188;52.324;8.032;2023-04-08T06:02:06;101254.06;;;5.55;100.00
60345;BME280;46188;52.324;8.032;2023-04-08T06:04:31;101254.19;;;5.59;100.00
60345;BME280;46188;52.324;8.032;2023-04-08T06:06:56;101256.00;;;5.60;100.00
60345;BME280;46188;52.324;8.032;2023-04-08T06:09:24;101256.81;;;5.59;100.00
60345;BME280;46188;52.324;8.032;2023-04-08T06:11:49;101249.97;;;5.62;100.00
60345;BME280;46188;52.324;8.032;2023-04-08T06:14:15;101256.88;;;5.60;100.00
60345;BME280;46188;52.324;8.032;2023-04-08T06:16:40;101268.16;;;5.59;100.00
60345;BME280;46188;52.324;8.032;2023-04-08T06:19:06;101263.00;;;5.61;100.00
60345;BME280;46188;52.324;8.032;2023-04-08T06:21:31;101265.47;;;5.58;100.00
60345;BME280;46188;52.324;8.032;2023-04-08T06:23:56;101266.59;;;5.63;100.00
60345;BME280;46188;52.324;8.032;2023-04-08T06:26:21;101270.97;;;5.64;100.00
60345;BME280;46188;52.324;8.032;2023-04-08T06:28:47;101278.16;;;5.68;100.00
60345;BME280;46188;52.324;8.032;2023-04-08T06:31:12;101283.63;;;5.74;100.00
60345;BME280;46188;52.324;8.032;2023-04-08T06:33:37;101292.38;;;5.75;100.00
60345;BME280;46188;52.324;8.032;2023-04-08T06:36:06;101289.56;;;5.70;100.00
60345;BME280;46188;52.324;8.032;2023-04-08T06:38:33;101291.22;;;5.68;100.00
60345;BME280;46188;52.324;8.032;2023-04-08T06:41:02;101296.59;;;5.71;100.00
60345;BME280;46188;52.324;8.032;2023-04-08T06:43:28;101300.97;;;5.72;100.00
60345;BME280;46188;52.324;8.032;2023-04-08T06:45:54;101303.59;;;5.72;100.00
60345;BME280;46188;52.324;8.032;2023-04-08T06:48:19;101300.31;;;5.76;100.00
60345;BME280;46188;52.324;8.032;2023-04-08T06:50:47;101296.31;;;5.84;100.00
60345;BME280;46188;52.324;8.032;2023-04-08T06:53:12;101305.78;;;5.82;100.00
60345;BME280;46188;52.324;8.032;2023-04-08T06:55:37;101307.44;;;5.80;100.00
60345;BME280;46188;52.324;8.032;2023-04-08T06:58:03;101306.50;;;5.78;100.00
60345;BME280;46188;52.324;8.032;2023-04-08T07:00:28;101304.91;;;5.82;100.00
60345;BME280;46188;52.324;8.032;2023-04-08T07:02:53;101310.94;;;5.81;100.00
60345;BME280;46188;52.324;8.032;2023-04-08T07:05:18;101310.94;;;5.81;100.00
60345;BME280;46188;52.324;8.032;2023-04-08T07:07:44;101315.38;;;5.82;100.00
60345;BME280;46188;52.324;8.032;2023-04-08T07:10:09;101320.59;;;5.82;100.00
60345;BME280;46188;52.324;8.032;2023-04-08T07:12:34;101318.94;;;5.84;100.00
60345;BME280;46188;52.324;8.032;2023-04-08T07:15:00;101320.66;;;5.83;100.00
60345;BME280;46188;52.324;8.032;2023-04-08T07:17:25;101324.44;;;5.90;100.00
60345;BME280;46188;52.324;8.032;2023-04-08T07:19:50;101329.81;;;5.93;100.00
60345;BME280;46188;52.324;8.032;2023-04-08T07:22:15;101323.97;;;5.99;100.00
60345;BME280;46188;52.324;8.032;2023-04-08T07:24:41;101335.00;;;6.11;100.00
60345;BME280;46188;52.324;8.032;2023-04-08T07:27:09;101329.03;;;6.15;100.00
60345;BME280;46188;52.324;8.032;2023-04-08T07:29:35;101332.75;;;6.20;100.00
60345;BME280;46188;52.324;8.032;2023-04-08T07:32:00;101343.28;;;6.22;100.00
60345;BME280;46188;52.324;8.032;2023-04-08T07:34:25;101336.97;;;6.17;100.00
60345;BME280;46188;52.324;8.032;2023-04-08T07:36:50;101331.66;;;6.15;100.00
60345;BME280;46188;52.324;8.032;2023-04-08T07:39:16;101334.28;;;6.15;100.00
60345;BME280;46188;52.324;8.032;2023-04-08T07:41:41;101338.91;;;6.21;100.00
60345;BME280;46188;52.324;8.032;2023-04-08T07:44:06;101334.69;;;6.24;100.00
60345;BME280;46188;52.324;8.032;2023-04-08T07:46:36;101343.22;;;6.20;100.00
60345;BME280;46188;52.324;8.032;2023-04-08T07:49:01;101341.53;;;6.21;100.00
60345;BME280;46188;52.324;8.032;2023-04-08T07:51:26;101338.13;;;6.23;100.00
60345;BME280;46188;52.324;8.032;2023-04-08T07:53:51;101342.69;;;6.27;100.00
60345;BME280;46188;52.324;8.032;2023-04-08T07:56:17;101341.75;;;6.27;100.00
60345;BME280;46188;52.324;8.032;2023-04-08T07:58:43;101342.59;;;6.26;100.00
60345;BME280;46188;52.324;8.032;2023-04-08T08:01:18;101343.28;;;6.22;100.00
60345;BME280;46188;52.324;8.032;2023-04-08T08:03:45;101345.16;;;6.24;100.00
60345;BME280;46188;52.324;8.032;2023-04-08T08:06:11;101345.38;;;6.29;100.00
60345;BME280;46188;52.324;8.032;2023-04-08T08:08:36;101347.25;;;6.33;100.00
60345;BME280;46188;52.324;8.032;2023-04-08T08:11:02;101345.53;;;6.34;100.00
60345;BME280;46188;52.324;8.032;2023-04-08T08:13:27;101348.28;;;6.37;100.00
60345;BME280;46188;52.324;8.032;2023-04-08T08:15:52;101349.94;;;6.35;100.00
60345;BME280;46188;52.324;8.032;2023-04-08T08:18:18;101349.94;;;6.35;100.00
60345;BME280;46188;52.324;8.032;2023-04-08T08:20:43;101349.81;;;6.32;100.00
60345;BME280;46188;52.324;8.032;2023-04-08T08:23:08;101354.25;;;6.33;100.00
60345;BME280;46188;52.324;8.032;2023-04-08T08:25:34;101362.38;;;6.39;100.00
60345;BME280;46188;52.324;8.032;2023-04-08T08:27:59;101363.19;;;6.38;100.00
60345;BME280;46188;52.324;8.032;2023-04-08T08:30:25;101373.06;;;6.45;100.00
60345;BME280;46188;52.324;8.032;2023-04-08T08:32:51;101366.22;;;6.49;100.00
60345;BME280;46188;52.324;8.032;2023-04-08T08:35:16;101367.09;;;6.47;100.00
60345;BME280;46188;52.324;8.032;2023-04-08T08:37:41;101369.91;;;6.52;100.00
60345;BME280;46188;52.324;8.032;2023-04-08T08:40:07;101374.34;;;6.55;100.00
60345;BME280;46188;52.324;8.032;2023-04-08T08:42:33;101373.75;;;6.60;100.00
60345;BME280;46188;52.324;8.032;2023-04-08T08:45:01;101377.50;;;6.67;100.00
60345;BME280;46188;52.324;8.032;2023-04-08T08:47:27;101383.03;;;6.75;100.00
60345;BME280;46188;52.324;8.032;2023-04-08T08:49:52;101384.97;;;6.79;100.00
60345;BME280;46188;52.324;8.032;2023-04-08T08:52:17;101380.63;;;6.79;100.00
60345;BME280;46188;52.324;8.032;2023-04-08T08:54:44;101389.38;;;6.80;100.00
60345;BME280;46188;52.324;8.032;2023-04-08T08:57:19;101384.50;;;6.89;100.00
60345;BME280;46188;52.324;8.032;2023-04-08T08:59:48;101384.69;;;6.94;100.00
60345;BME280;46188;52.324;8.032;2023-04-08T09:02:27;101393.66;;;6.99;100.00
60345;BME280;46188;52.324;8.032;2023-04-08T09:05:02;101393.72;;;7.00;100.00
60345;BME280;46188;52.324;8.032;2023-04-08T09:07:34;101389.41;;;7.02;100.00
60345;BME280;46188;52.324;8.032;2023-04-08T09:09:59;101397.34;;;7.04;100.00
60345;BME280;46188;52.324;8.032;2023-04-08T09:12:26;101387.94;;;7.09;100.00
60345;BME280;46188;52.324;8.032;2023-04-08T09:15:08;101386.25;;;7.11;100.00
60345;BME280;46188;52.324;8.032;2023-04-08T09:17:38;101386.50;;;7.17;100.00
60345;BME280;46188;52.324;8.032;2023-04-08T09:20:09;101386.69;;;7.22;100.00
60345;BME280;46188;52.324;8.032;2023-04-08T09:23:08;101392.94;;;7.26;100.00
60345;BME280;46188;52.324;8.032;2023-04-08T09:25:33;101386.88;;;7.27;100.00
60345;BME280;46188;52.324;8.032;2023-04-08T09:27:59;101387.75;;;7.27;100.00
60345;BME280;46188;52.324;8.032;2023-04-08T09:30:26;101393.19;;;7.32;100.00
60345;BME280;46188;52.324;8.032;2023-04-08T09:32:56;101389.56;;;7.28;100.00
60345;BME280;46188;52.324;8.032;2023-04-08T09:35:23;101397.53;;;7.31;100.00
60345;BME280;46188;52.324;8.032;2023-04-08T09:37:49;101398.72;;;7.39;100.00
60345;BME280;46188;52.324;8.032;2023-04-08T09:40:16;101399.56;;;7.38;100.00
60345;BME280;46188;52.324;8.032;2023-04-08T09:42:46;101403.03;;;7.37;100.00
60345;BME280;46188;52.324;8.032;2023-04-08T09:45:18;101402.25;;;7.40;100.00
60345;BME280;46188;52.324;8.032;2023-04-08T09:47:51;101398.91;;;7.44;100.00
60345;BME280;46188;52.324;8.032;2023-04-08T09:50:23;101406.28;;;7.54;100.00
60345;BME280;46188;52.324;8.032;2023-04-08T09:53:01;101406.53;;;7.61;100.00
60345;BME280;46188;52.324;8.032;2023-04-08T09:55:32;101405.66;;;7.60;100.00
60345;BME280;46188;52.324;8.032;2023-04-08T09:58:17;101402.28;;;7.64;100.00
60345;BME280;46188;52.324;8.032;2023-04-08T10:00:49;101406.94;;;7.71;100.00
60345;BME280;46188;52.324;8.032;2023-04-08T10:03:25;101403.34;;;7.69;100.00
60345;BME280;46188;52.324;8.032;2023-04-08T10:05:52;101401.63;;;7.70;100.00
60345;BME280;46188;52.324;8.032;2023-04-08T10:08:18;101397.34;;;7.72;100.00
60345;BME280;46188;52.324;8.032;2023-04-08T10:10:44;101404.41;;;7.74;100.00
60345;BME280;46188;52.324;8.032;2023-04-08T10:13:10;101400.03;;;7.73;100.00
60345;BME280;46188;52.324;8.032;2023-04-08T10:15:36;101403.59;;;7.75;100.00
60345;BME280;46188;52.324;8.032;2023-04-08T10:23:07;101398.16;;;7.71;100.00
60345;BME280;46188;52.324;8.032;2023-04-08T10:33:20;101405.97;;;7.69;100.00
60345;BME280;46188;52.324;8.032;2023-04-08T10:35:58;101414.16;;;7.77;100.00
60345;BME280;46188;52.324;8.032;2023-04-08T10:38:24;101409.03;;;7.80;100.00
60345;BME280;46188;52.324;8.032;2023-04-08T10:40:49;101409.25;;;7.86;100.00
60345;BME280;46188;52.324;8.032;2023-04-08T10:43:16;101413.66;;;7.87;100.00
60345;BME280;46188;52.324;8.032;2023-04-08T10:45:43;101419.06;;;7.92;100.00
60345;BME280;46188;52.324;8.032;2023-04-08T10:48:21;101417.41;;;7.94;100.00
60345;BME280;46188;52.324;8.032;2023-04-08T10:50:58;101420.38;;;8.03;100.00
60345;BME280;46188;52.324;8.032;2023-04-08T10:53:27;101424.81;;;8.06;100.00
60345;BME280;46188;52.324;8.032;2023-04-08T10:56:22;101423.22;;;8.09;100.00
60345;BME280;46188;52.324;8.032;2023-04-08T10:58:53;101423.28;;;8.11;100.00
60345;BME280;46188;52.324;8.032;2023-04-08T11:01:20;101417.28;;;8.15;100.00
60345;BME280;46188;52.324;8.032;2023-04-08T11:03:45;101420.09;;;8.20;100.00
60345;BME280;46188;52.324;8.032;2023-04-08T11:06:11;101422.59;;;8.17;100.00
60345;BME280;46188;52.324;8.032;2023-04-08T11:08:37;101427.03;;;8.18;100.00
60345;BME280;46188;52.324;8.032;2023-04-08T11:11:03;101425.47;;;8.23;100.00
60345;BME280;46188;52.324;8.032;2023-04-08T11:13:33;101419.47;;;8.27;100.00
60345;BME280;46188;52.324;8.032;2023-04-08T11:16:00;101418.56;;;8.26;100.00
60345;BME280;46188;52.324;8.032;2023-04-08T11:18:26;101431.88;;;8.31;100.00
60345;BME280;46188;52.324;8.032;2023-04-08T11:20:53;101427.78;;;8.39;100.00
60345;BME280;46188;52.324;8.032;2023-04-08T11:23:18;101428.66;;;8.40;100.00
60345;BME280;46188;52.324;8.032;2023-04-08T11:25:45;101430.69;;;8.47;100.00
60345;BME280;46188;52.324;8.032;2023-04-08T11:28:13;101418.56;;;8.50;100.00
60345;BME280;46188;52.324;8.032;2023-04-08T11:30:39;101415.16;;;8.53;100.00
60345;BME280;46188;52.324;8.032;2023-04-08T11:33:06;101416.25;;;8.60;100.00
60345;BME280;46188;52.324;8.032;2023-04-08T11:35:31;101416.47;;;8.66;100.00
60345;BME280;46188;52.324;8.032;2023-04-08T11:37:57;101410.41;;;8.68;100.00
60345;BME280;46188;52.324;8.032;2023-04-08T11:40:23;101419.28;;;8.72;100.00
60345;BME280;46188;52.324;8.032;2023-04-08T11:42:49;101417.69;;;8.76;100.00
60345;BME280;46188;52.324;8.032;2023-04-08T11:45:18;101418.66;;;8.79;100.00
60345;BME280;46188;52.324;8.032;2023-04-08T11:47:44;101414.63;;;8.89;100.00
60345;BME280;46188;52.324;8.032;2023-04-08T11:50:11;101419.38;;;9.01;100.00
60345;BME280;46188;52.324;8.032;2023-04-08T11:52:46;101414.13;;;9.01;100.00
60345;BME280;46188;52.324;8.032;2023-04-08T11:55:23;101413.28;;;9.02;100.00
60345;BME280;46188;52.324;8.032;2023-04-08T11:57:48;101414.28;;;9.05;100.00
60345;BME280;46188;52.324;8.032;2023-04-08T12:00:14;101427.38;;;9.04;100.00
60345;BME280;46188;52.324;8.032;2023-04-08T12:02:39;101416.75;;;9.01;100.00
60345;BME280;46188;52.324;8.032;2023-04-08T12:05:05;101423.06;;;9.06;100.00
60345;BME280;46188;52.324;8.032;2023-04-08T12:07:30;101411.03;;;9.14;100.00
60345;BME280;46188;52.324;8.032;2023-04-08T12:09:56;101411.28;;;9.22;100.00
60345;BME280;46188;52.324;8.032;2023-04-08T12:12:21;101421.06;;;9.26;100.00
60345;BME280;46188;52.324;8.032;2023-04-08T12:14:46;101414.84;;;9.24;100.00
60345;BME280;46188;52.324;8.032;2023-04-08T12:17:12;101419.41;;;9.30;100.00
60345;BME280;46188;52.324;8.032;2023-04-08T12:19:37;101421.31;;;9.34;100.00
60345;BME280;46188;52.324;8.032;2023-04-08T12:22:02;101419.44;;;9.31;100.00
60345;BME280;46188;52.324;8.032;2023-04-08T12:24:27;101411.75;;;9.37;100.00
60345;BME280;46188;52.324;8.032;2023-04-08T12:26:53;101415.63;;;9.49;100.00
60345;BME280;46188;52.324;8.032;2023-04-08T12:29:18;101412.22;;;9.53;100.00
60345;BME280;46188;52.324;8.032;2023-04-08T12:31:43;101416.66;;;9.54;100.00
60345;BME280;46188;52.324;8.032;2023-04-08T12:34:09;101419.97;;;9.48;100.00
60345;BME280;46188;52.324;8.032;2023-04-08T12:36:34;101426.88;;;9.45;100.00
60345;BME280;46188;52.324;8.032;2023-04-08T12:39:00;101426.25;;;9.52;100.00
60345;BME280;46188;52.324;8.032;2023-04-08T12:41:25;101424.41;;;9.49;100.00
60345;BME280;46188;52.324;8.032;2023-04-08T12:43:51;101427.19;;;9.54;100.00
60345;BME280;46188;52.324;8.032;2023-04-08T12:46:16;101426.47;;;9.59;100.00
60345;BME280;46188;52.324;8.032;2023-04-08T12:48:41;101422.16;;;9.62;100.00
60345;BME280;46188;52.324;8.032;2023-04-08T12:51:09;101417.81;;;9.64;100.00
60345;BME280;46188;52.324;8.032;2023-04-08T12:53:34;101421.53;;;9.70;100.00
60345;BME280;46188;52.324;8.032;2023-04-08T12:56:00;101425.88;;;9.68;100.00
60345;BME280;46188;52.324;8.032;2023-04-08T12:58:25;101429.44;;;9.70;100.00
60345;BME280;46188;52.324;8.032;2023-04-08T13:00:51;101422.50;;;9.74;100.00
60345;BME280;46188;52.324;8.032;2023-04-08T13:03:16;101425.16;;;9.74;100.00